sensor_id;sensor_type;location;lat;lon;timestamp;temperature;humidity
13405;DHT22;6773;51.192;7.024;2022-08-19T00:01:36;19.00;99.90
13405;DHT22;6773;51.192;7.024;2022-08-19T00:04:04;19.00;99.90
13405;DHT22;6773;51.192;7.024;2022-08-19T00:06:31;18.90;99.90
13405;DHT22;6773;51.192;7.024;2022-08-19T00:08:57;18.90;99.90
13405;DHT22;6773;51.192;7.024;2022-08-19T00:11:23;18.80;99.90
13405;DHT22;6773;51.192;7.024;2022-08-19T00:13:52;18.80;99.90
13405;DHT22;6773;51.192;7.024;2022-08-19T00:18:45;18.80;99.90
13405;DHT22;6773;51.192;7.024;2022-08-19T00:21:10;18.80;99.90
13405;DHT22;6773;51.192;7.024;2022-08-19T00:23:36;18.80;99.90
13405;DHT22;6773;51.192;7.024;2022-08-19T00:26:04;18.80;99.90
13405;DHT22;6773;51.192;7.024;2022-08-19T00:28:29;18.80;99.90
13405;DHT22;6773;51.192;7.024;2022-08-19T00:30:56;18.80;99.90
13405;DHT22;6773;51.192;7.024;2022-08-19T00:33:21;18.80;99.90
13405;DHT22;6773;51.192;7.024;2022-08-19T00:35:47;18.70;99.90
13405;DHT22;6773;51.192;7.024;2022-08-19T00:38:13;18.70;99.90
13405;DHT22;6773;51.192;7.024;2022-08-19T00:40:40;18.70;99.90
13405;DHT22;6773;51.192;7.024;2022-08-19T00:43:09;18.70;99.90
13405;DHT22;6773;51.192;7.024;2022-08-19T00:48:02;18.60;99.90
13405;DHT22;6773;51.192;7.024;2022-08-19T00:50:30;18.50;99.90
13405;DHT22;6773;51.192;7.024;2022-08-19T00:52:56;18.50;99.90
13405;DHT22;6773;51.192;7.024;2022-08-19T00:55:26;18.50;99.90
13405;DHT22;6773;51.192;7.024;2022-08-19T00:57:56;18.40;99.90
13405;DHT22;6773;51.192;7.024;2022-08-19T01:00:24;18.40;99.90
13405;DHT22;6773;51.192;7.024;2022-08-19T01:02:50;18.40;99.90
13405;DHT22;6773;51.192;7.024;2022-08-19T01:05:24;18.40;99.90
13405;DHT22;6773;51.192;7.024;2022-08-19T01:07:53;18.40;99.90
13405;DHT22;6773;51.192;7.024;2022-08-19T01:10:21;18.40;99.90
13405;DHT22;6773;51.192;7.024;2022-08-19T01:12:49;18.40;99.90
13405;DHT22;6773;51.192;7.024;2022-08-19T01:15:19;18.30;99.90
13405;DHT22;6773;51.192;7.024;2022-08-19T01:17:46;18.30;99.90
13405;DHT22;6773;51.192;7.024;2022-08-19T01:20:19;18.30;99.90
13405;DHT22;6773;51.192;7.024;2022-08-19T01:22:51;18.40;99.90
13405;DHT22;6773;51.192;7.024;2022-08-19T01:25:20;18.40;99.90
13405;DHT22;6773;51.192;7.024;2022-08-19T01:27:49;18.30;99.90
13405;DHT22;6773;51.192;7.024;2022-08-19T01:30:22;18.30;99.90
13405;DHT22;6773;51.192;7.024;2022-08-19T01:32:49;18.30;99.90
13405;DHT22;6773;51.192;7.024;2022-08-19T01:37:59;18.30;99.90
13405;DHT22;6773;51.192;7.024;2022-08-19T01:40:30;18.30;99.90
13405;DHT22;6773;51.192;7.024;2022-08-19T01:42:57;18.20;99.90
13405;DHT22;6773;51.192;7.024;2022-08-19T01:45:26;18.20;99.90
13405;DHT22;6773;51.192;7.024;2022-08-19T01:47:52;18.20;99.90
13405;DHT22;6773;51.192;7.024;2022-08-19T01:50:18;18.10;99.90
13405;DHT22;6773;51.192;7.024;2022-08-19T01:52:45;18.00;99.90
13405;DHT22;6773;51.192;7.024;2022-08-19T01:55:14;18.00;99.90
13405;DHT22;6773;51.192;7.024;2022-08-19T01:57:42;17.90;99.90
13405;DHT22;6773;51.192;7.024;2022-08-19T02:00:11;17.80;99.90
13405;DHT22;6773;51.192;7.024;2022-08-19T02:02:38;17.80;99.90
13405;DHT22;6773;51.192;7.024;2022-08-19T02:05:04;17.80;99.90
13405;DHT22;6773;51.192;7.024;2022-08-19T02:09:58;17.80;99.90
13405;DHT22;6773;51.192;7.024;2022-08-19T02:17:16;17.70;99.90
13405;DHT22;6773;51.192;7.024;2022-08-19T02:22:07;17.70;99.90
13405;DHT22;6773;51.192;7.024;2022-08-19T02:24:33;17.70;99.90
13405;DHT22;6773;51.192;7.024;2022-08-19T02:26:59;17.70;99.90
13405;DHT22;6773;51.192;7.024;2022-08-19T02:29:25;17.60;99.90
13405;DHT22;6773;51.192;7.024;2022-08-19T02:34:17;17.60;99.90
13405;DHT22;6773;51.192;7.024;2022-08-19T02:36:43;17.60;99.90
13405;DHT22;6773;51.192;7.024;2022-08-19T02:39:09;17.50;99.90
13405;DHT22;6773;51.192;7.024;2022-08-19T02:41:35;17.60;99.90
13405;DHT22;6773;51.192;7.024;2022-08-19T02:44:02;17.60;99.90
13405;DHT22;6773;51.192;7.024;2022-08-19T02:46:31;17.60;99.90
13405;DHT22;6773;51.192;7.024;2022-08-19T02:49:00;17.60;99.90
13405;DHT22;6773;51.192;7.024;2022-08-19T02:51:30;17.60;99.90
13405;DHT22;6773;51.192;7.024;2022-08-19T02:53:56;17.60;99.90
13405;DHT22;6773;51.192;7.024;2022-08-19T02:56:23;17.60;99.90
13405;DHT22;6773;51.192;7.024;2022-08-19T02:58:50;17.60;99.90
13405;DHT22;6773;51.192;7.024;2022-08-19T03:01:28;17.60;99.90
13405;DHT22;6773;51.192;7.024;2022-08-19T03:03:55;17.60;99.90
13405;DHT22;6773;51.192;7.024;2022-08-19T03:06:21;17.60;99.90
13405;DHT22;6773;51.192;7.024;2022-08-19T03:08:48;17.50;99.90
13405;DHT22;6773;51.192;7.024;2022-08-19T03:11:29;17.50;99.90
13405;DHT22;6773;51.192;7.024;2022-08-19T03:13:56;17.50;99.90
13405;DHT22;6773;51.192;7.024;2022-08-19T03:16:25;17.50;99.90
13405;DHT22;6773;51.192;7.024;2022-08-19T03:18:51;17.50;99.90
13405;DHT22;6773;51.192;7.024;2022-08-19T03:21:23;17.50;99.90
13405;DHT22;6773;51.192;7.024;2022-08-19T03:23:56;17.40;99.90
13405;DHT22;6773;51.192;7.024;2022-08-19T03:26:21;17.40;99.90
13405;DHT22;6773;51.192;7.024;2022-08-19T03:28:47;17.50;99.90
13405;DHT22;6773;51.192;7.024;2022-08-19T03:31:16;17.50;99.90
13405;DHT22;6773;51.192;7.024;2022-08-19T03:33:43;17.50;99.90
13405;DHT22;6773;51.192;7.024;2022-08-19T03:38:38;17.50;99.90
13405;DHT22;6773;51.192;7.024;2022-08-19T03:41:12;17.50;99.90
13405;DHT22;6773;51.192;7.024;2022-08-19T03:43:39;17.50;99.90
13405;DHT22;6773;51.192;7.024;2022-08-19T03:46:13;17.50;99.90
13405;DHT22;6773;51.192;7.024;2022-08-19T03:48:41;17.40;99.90
13405;DHT22;6773;51.192;7.024;2022-08-19T03:51:18;17.40;99.90
13405;DHT22;6773;51.192;7.024;2022-08-19T03:53:45;17.40;99.90
13405;DHT22;6773;51.192;7.024;2022-08-19T03:56:12;17.40;99.90
13405;DHT22;6773;51.192;7.024;2022-08-19T03:58:39;17.40;99.90
13405;DHT22;6773;51.192;7.024;2022-08-19T04:01:09;17.50;99.90
13405;DHT22;6773;51.192;7.024;2022-08-19T04:03:35;17.50;99.90
13405;DHT22;6773;51.192;7.024;2022-08-19T04:06:16;17.50;99.90
13405;DHT22;6773;51.192;7.024;2022-08-19T04:08:44;17.50;99.90
13405;DHT22;6773;51.192;7.024;2022-08-19T04:11:12;17.60;99.90
13405;DHT22;6773;51.192;7.024;2022-08-19T04:13:38;17.60;99.90
13405;DHT22;6773;51.192;7.024;2022-08-19T04:16:05;17.50;99.90
13405;DHT22;6773;51.192;7.024;2022-08-19T04:18:31;17.50;99.90
13405;DHT22;6773;51.192;7.024;2022-08-19T04:20:58;17.50;99.90
13405;DHT22;6773;51.192;7.024;2022-08-19T04:23:24;17.50;99.90
13405;DHT22;6773;51.192;7.024;2022-08-19T04:25:49;17.50;99.90
13405;DHT22;6773;51.192;7.024;2022-08-19T04:28:15;17.40;99.90
13405;DHT22;6773;51.192;7.024;2022-08-19T04:30:44;17.40;99.90
13405;DHT22;6773;51.192;7.024;2022-08-19T04:33:11;17.40;99.90
13405;DHT22;6773;51.192;7.024;2022-08-19T04:35:45;17.30;99.90
13405;DHT22;6773;51.192;7.024;2022-08-19T04:38:12;17.30;99.90
13405;DHT22;6773;51.192;7.024;2022-08-19T04:40:43;17.30;99.90
13405;DHT22;6773;51.192;7.024;2022-08-19T04:43:28;17.30;99.90
13405;DHT22;6773;51.192;7.024;2022-08-19T04:45:55;17.30;99.90
13405;DHT22;6773;51.192;7.024;2022-08-19T04:48:21;17.30;99.90
13405;DHT22;6773;51.192;7.024;2022-08-19T04:50:52;17.40;99.90
13405;DHT22;6773;51.192;7.024;2022-08-19T04:53:26;17.40;99.90
13405;DHT22;6773;51.192;7.024;2022-08-19T04:55:54;17.30;99.90
13405;DHT22;6773;51.192;7.024;2022-08-19T04:58:20;17.30;99.90
13405;DHT22;6773;51.192;7.024;2022-08-19T05:03:12;17.40;99.90
13405;DHT22;6773;51.192;7.024;2022-08-19T05:05:40;17.40;99.90
13405;DHT22;6773;51.192;7.024;2022-08-19T05:08:06;17.40;99.90
13405;DHT22;6773;51.192;7.024;2022-08-19T05:10:38;17.40;99.90
13405;DHT22;6773;51.192;7.024;2022-08-19T05:13:04;17.50;99.90
13405;DHT22;6773;51.192;7.024;2022-08-19T05:15:30;17.50;99.90
13405;DHT22;6773;51.192;7.024;2022-08-19T05:17:56;17.50;99.90
13405;DHT22;6773;51.192;7.024;2022-08-19T05:20:40;17.50;99.90
13405;DHT22;6773;51.192;7.024;2022-08-19T05:23:24;17.60;99.90
13405;DHT22;6773;51.192;7.024;2022-08-19T05:25:51;17.60;99.90
13405;DHT22;6773;51.192;7.024;2022-08-19T05:28:17;17.70;99.90
13405;DHT22;6773;51.192;7.024;2022-08-19T05:30:43;17.70;99.90
13405;DHT22;6773;51.192;7.024;2022-08-19T05:33:10;17.70;99.90
13405;DHT22;6773;51.192;7.024;2022-08-19T05:35:40;17.80;99.90
13405;DHT22;6773;51.192;7.024;2022-08-19T05:38:07;17.80;99.90
13405;DHT22;6773;51.192;7.024;2022-08-19T05:40:35;17.80;99.90
13405;DHT22;6773;51.192;7.024;2022-08-19T05:43:05;17.80;99.90
13405;DHT22;6773;51.192;7.024;2022-08-19T05:45:31;17.90;99.90
13405;DHT22;6773;51.192;7.024;2022-08-19T05:47:57;17.80;99.90
13405;DHT22;6773;51.192;7.024;2022-08-19T05:50:24;17.80;99.90
13405;DHT22;6773;51.192;7.024;2022-08-19T05:52:52;17.70;99.90
13405;DHT22;6773;51.192;7.024;2022-08-19T05:55:18;17.70;99.90
13405;DHT22;6773;51.192;7.024;2022-08-19T05:57:46;17.80;99.90
13405;DHT22;6773;51.192;7.024;2022-08-19T06:00:12;17.80;99.90
13405;DHT22;6773;51.192;7.024;2022-08-19T06:02:39;17.80;99.90
13405;DHT22;6773;51.192;7.024;2022-08-19T06:05:06;17.80;99.90
13405;DHT22;6773;51.192;7.024;2022-08-19T06:07:38;17.70;99.90
13405;DHT22;6773;51.192;7.024;2022-08-19T06:10:09;17.80;99.90
13405;DHT22;6773;51.192;7.024;2022-08-19T06:12:36;17.80;99.90
13405;DHT22;6773;51.192;7.024;2022-08-19T06:15:11;17.80;99.90
13405;DHT22;6773;51.192;7.024;2022-08-19T06:17:38;18.00;99.90
13405;DHT22;6773;51.192;7.024;2022-08-19T06:20:05;18.00;99.90
13405;DHT22;6773;51.192;7.024;2022-08-19T06:22:31;18.00;99.90
13405;DHT22;6773;51.192;7.024;2022-08-19T06:24:57;18.10;99.90
13405;DHT22;6773;51.192;7.024;2022-08-19T06:27:23;18.10;99.90
13405;DHT22;6773;51.192;7.024;2022-08-19T06:29:48;18.10;99.90
13405;DHT22;6773;51.192;7.024;2022-08-19T06:32:16;18.10;99.90
13405;DHT22;6773;51.192;7.024;2022-08-19T06:34:43;18.20;99.90
13405;DHT22;6773;51.192;7.024;2022-08-19T06:37:09;18.20;99.90
13405;DHT22;6773;51.192;7.024;2022-08-19T06:39:38;18.30;99.90
13405;DHT22;6773;51.192;7.024;2022-08-19T06:42:05;18.30;99.90
13405;DHT22;6773;51.192;7.024;2022-08-19T06:44:39;18.40;99.90
13405;DHT22;6773;51.192;7.024;2022-08-19T06:47:08;18.40;99.90
13405;DHT22;6773;51.192;7.024;2022-08-19T06:49:34;18.40;99.90
13405;DHT22;6773;51.192;7.024;2022-08-19T06:52:01;18.50;99.90
13405;DHT22;6773;51.192;7.024;2022-08-19T06:54:27;18.50;99.90
13405;DHT22;6773;51.192;7.024;2022-08-19T06:56:55;18.60;99.90
13405;DHT22;6773;51.192;7.024;2022-08-19T06:59:22;18.70;99.90
13405;DHT22;6773;51.192;7.024;2022-08-19T07:01:53;18.80;99.90
13405;DHT22;6773;51.192;7.024;2022-08-19T07:04:25;18.80;99.90
13405;DHT22;6773;51.192;7.024;2022-08-19T07:07:04;18.90;99.90
13405;DHT22;6773;51.192;7.024;2022-08-19T07:09:32;18.90;99.90
13405;DHT22;6773;51.192;7.024;2022-08-19T07:11:58;18.90;99.90
13405;DHT22;6773;51.192;7.024;2022-08-19T07:14:26;18.90;99.90
13405;DHT22;6773;51.192;7.024;2022-08-19T07:16:54;19.00;99.90
13405;DHT22;6773;51.192;7.024;2022-08-19T07:19:21;19.00;99.90
13405;DHT22;6773;51.192;7.024;2022-08-19T07:21:51;19.10;99.90
13405;DHT22;6773;51.192;7.024;2022-08-19T07:24:23;19.10;99.90
13405;DHT22;6773;51.192;7.024;2022-08-19T07:26:51;19.10;99.90
13405;DHT22;6773;51.192;7.024;2022-08-19T07:29:17;19.10;99.90
13405;DHT22;6773;51.192;7.024;2022-08-19T07:31:43;19.10;99.90
13405;DHT22;6773;51.192;7.024;2022-08-19T07:34:11;19.00;99.90
13405;DHT22;6773;51.192;7.024;2022-08-19T07:36:40;19.00;99.90
13405;DHT22;6773;51.192;7.024;2022-08-19T07:39:13;19.10;99.90
13405;DHT22;6773;51.192;7.024;2022-08-19T07:41:39;19.10;99.90
13405;DHT22;6773;51.192;7.024;2022-08-19T07:44:06;19.10;99.90
13405;DHT22;6773;51.192;7.024;2022-08-19T07:46:34;19.10;99.90
13405;DHT22;6773;51.192;7.024;2022-08-19T07:49:01;19.20;99.90
13405;DHT22;6773;51.192;7.024;2022-08-19T07:51:28;19.30;99.90
13405;DHT22;6773;51.192;7.024;2022-08-19T07:53:54;19.40;99.90
13405;DHT22;6773;51.192;7.024;2022-08-19T07:56:21;19.40;99.90
13405;DHT22;6773;51.192;7.024;2022-08-19T07:58:49;19.50;99.90
13405;DHT22;6773;51.192;7.024;2022-08-19T08:01:19;19.60;99.90
13405;DHT22;6773;51.192;7.024;2022-08-19T08:03:47;19.80;99.90
13405;DHT22;6773;51.192;7.024;2022-08-19T08:06:31;19.90;99.90
13405;DHT22;6773;51.192;7.024;2022-08-19T08:09:19;19.90;99.90
13405;DHT22;6773;51.192;7.024;2022-08-19T08:11:51;19.90;99.90
13405;DHT22;6773;51.192;7.024;2022-08-19T08:14:24;20.00;99.90
13405;DHT22;6773;51.192;7.024;2022-08-19T08:16:51;20.00;99.90
13405;DHT22;6773;51.192;7.024;2022-08-19T08:19:19;20.10;99.90
13405;DHT22;6773;51.192;7.024;2022-08-19T08:21:46;20.20;99.90
13405;DHT22;6773;51.192;7.024;2022-08-19T08:24:12;20.20;99.90
13405;DHT22;6773;51.192;7.024;2022-08-19T08:26:39;20.30;99.90
13405;DHT22;6773;51.192;7.024;2022-08-19T08:29:04;20.30;99.90
13405;DHT22;6773;51.192;7.024;2022-08-19T08:31:32;20.40;99.90
13405;DHT22;6773;51.192;7.024;2022-08-19T08:33:59;20.50;99.90
13405;DHT22;6773;51.192;7.024;2022-08-19T08:36:25;20.80;99.90
13405;DHT22;6773;51.192;7.024;2022-08-19T08:38:51;21.10;99.90
13405;DHT22;6773;51.192;7.024;2022-08-19T08:44:03;21.60;99.90
13405;DHT22;6773;51.192;7.024;2022-08-19T08:46:37;21.80;99.90
13405;DHT22;6773;51.192;7.024;2022-08-19T08:49:16;22.00;99.90
13405;DHT22;6773;51.192;7.024;2022-08-19T08:51:54;22.10;99.90
13405;DHT22;6773;51.192;7.024;2022-08-19T08:54:34;22.40;99.90
13405;DHT22;6773;51.192;7.024;2022-08-19T08:57:00;22.70;99.90
13405;DHT22;6773;51.192;7.024;2022-08-19T08:59:33;23.20;99.90
13405;DHT22;6773;51.192;7.024;2022-08-19T09:02:00;23.30;99.90
13405;DHT22;6773;51.192;7.024;2022-08-19T09:04:26;23.30;99.90
13405;DHT22;6773;51.192;7.024;2022-08-19T09:07:01;23.50;99.90
13405;DHT22;6773;51.192;7.024;2022-08-19T09:09:38;24.00;99.90
13405;DHT22;6773;51.192;7.024;2022-08-19T09:12:31;24.00;99.90
13405;DHT22;6773;51.192;7.024;2022-08-19T09:15:10;24.10;99.90
13405;DHT22;6773;51.192;7.024;2022-08-19T09:17:37;24.20;99.90
13405;DHT22;6773;51.192;7.024;2022-08-19T09:20:12;24.10;99.90
13405;DHT22;6773;51.192;7.024;2022-08-19T09:22:41;24.30;99.90
13405;DHT22;6773;51.192;7.024;2022-08-19T09:25:13;24.80;99.90
13405;DHT22;6773;51.192;7.024;2022-08-19T09:27:41;25.10;99.90
13405;DHT22;6773;51.192;7.024;2022-08-19T09:30:08;25.00;99.90
13405;DHT22;6773;51.192;7.024;2022-08-19T09:32:34;25.10;99.90
13405;DHT22;6773;51.192;7.024;2022-08-19T09:35:00;25.00;99.90
13405;DHT22;6773;51.192;7.024;2022-08-19T09:37:27;25.10;99.90
13405;DHT22;6773;51.192;7.024;2022-08-19T09:39:53;24.90;99.90
13405;DHT22;6773;51.192;7.024;2022-08-19T09:42:19;24.90;99.90
13405;DHT22;6773;51.192;7.024;2022-08-19T09:44:46;24.90;99.90
13405;DHT22;6773;51.192;7.024;2022-08-19T09:47:13;25.00;99.90
13405;DHT22;6773;51.192;7.024;2022-08-19T09:49:39;25.00;99.90
13405;DHT22;6773;51.192;7.024;2022-08-19T09:52:10;25.10;99.90
13405;DHT22;6773;51.192;7.024;2022-08-19T09:54:37;24.70;99.90
13405;DHT22;6773;51.192;7.024;2022-08-19T09:57:03;24.70;99.90
13405;DHT22;6773;51.192;7.024;2022-08-19T10:01:55;24.70;99.90
13405;DHT22;6773;51.192;7.024;2022-08-19T10:04:21;24.90;99.90
13405;DHT22;6773;51.192;7.024;2022-08-19T10:06:49;25.10;99.90
13405;DHT22;6773;51.192;7.024;2022-08-19T10:09:17;25.40;99.90
13405;DHT22;6773;51.192;7.024;2022-08-19T10:11:44;25.50;99.90
13405;DHT22;6773;51.192;7.024;2022-08-19T10:14:15;25.60;99.90
13405;DHT22;6773;51.192;7.024;2022-08-19T10:16:42;25.60;99.90
13405;DHT22;6773;51.192;7.024;2022-08-19T10:19:08;25.60;99.90
13405;DHT22;6773;51.192;7.024;2022-08-19T10:21:35;25.50;99.90
13405;DHT22;6773;51.192;7.024;2022-08-19T10:24:03;25.50;99.90
13405;DHT22;6773;51.192;7.024;2022-08-19T10:26:35;25.80;99.80
13405;DHT22;6773;51.192;7.024;2022-08-19T10:29:03;26.10;99.90
13405;DHT22;6773;51.192;7.024;2022-08-19T10:31:32;26.50;93.20
13405;DHT22;6773;51.192;7.024;2022-08-19T10:33:59;26.10;94.20
13405;DHT22;6773;51.192;7.024;2022-08-19T10:36:32;25.90;96.50
13405;DHT22;6773;51.192;7.024;2022-08-19T10:39:00;26.20;96.00
13405;DHT22;6773;51.192;7.024;2022-08-19T10:41:29;26.20;96.20
13405;DHT22;6773;51.192;7.024;2022-08-19T10:43:57;26.70;95.20
13405;DHT22;6773;51.192;7.024;2022-08-19T10:46:25;27.10;93.10
13405;DHT22;6773;51.192;7.024;2022-08-19T10:48:52;26.60;94.00
13405;DHT22;6773;51.192;7.024;2022-08-19T10:51:17;26.80;91.30
13405;DHT22;6773;51.192;7.024;2022-08-19T10:54:03;26.80;91.60
13405;DHT22;6773;51.192;7.024;2022-08-19T10:56:29;27.00;93.00
13405;DHT22;6773;51.192;7.024;2022-08-19T10:59:15;27.10;90.50
13405;DHT22;6773;51.192;7.024;2022-08-19T11:01:42;27.00;88.30
13405;DHT22;6773;51.192;7.024;2022-08-19T11:04:08;26.80;90.30
13405;DHT22;6773;51.192;7.024;2022-08-19T11:06:37;26.80;90.90
13405;DHT22;6773;51.192;7.024;2022-08-19T11:09:04;27.30;91.00
13405;DHT22;6773;51.192;7.024;2022-08-19T11:11:31;27.40;89.40
13405;DHT22;6773;51.192;7.024;2022-08-19T11:13:58;28.20;85.10
13405;DHT22;6773;51.192;7.024;2022-08-19T11:16:26;28.20;85.70
13405;DHT22;6773;51.192;7.024;2022-08-19T11:18:57;28.40;83.60
13405;DHT22;6773;51.192;7.024;2022-08-19T11:21:32;28.40;81.20
13405;DHT22;6773;51.192;7.024;2022-08-19T11:24:00;28.20;80.00
13405;DHT22;6773;51.192;7.024;2022-08-19T11:26:27;27.80;79.50
13405;DHT22;6773;51.192;7.024;2022-08-19T11:28:53;27.40;80.70
13405;DHT22;6773;51.192;7.024;2022-08-19T11:31:23;27.50;80.90
13405;DHT22;6773;51.192;7.024;2022-08-19T11:33:49;27.60;82.20
13405;DHT22;6773;51.192;7.024;2022-08-19T11:36:21;27.90;80.90
13405;DHT22;6773;51.192;7.024;2022-08-19T11:38:48;28.20;79.50
13405;DHT22;6773;51.192;7.024;2022-08-19T11:41:16;27.90;78.70
13405;DHT22;6773;51.192;7.024;2022-08-19T11:43:42;28.30;77.80
13405;DHT22;6773;51.192;7.024;2022-08-19T11:46:09;28.40;77.20
13405;DHT22;6773;51.192;7.024;2022-08-19T11:48:36;28.60;77.60
13405;DHT22;6773;51.192;7.024;2022-08-19T11:51:08;29.10;78.20
13405;DHT22;6773;51.192;7.024;2022-08-19T11:53:34;29.30;75.20
13405;DHT22;6773;51.192;7.024;2022-08-19T11:56:00;29.50;75.00
13405;DHT22;6773;51.192;7.024;2022-08-19T11:58:26;29.60;74.70
13405;DHT22;6773;51.192;7.024;2022-08-19T12:00:52;29.70;74.40
13405;DHT22;6773;51.192;7.024;2022-08-19T12:03:18;29.80;76.30
13405;DHT22;6773;51.192;7.024;2022-08-19T12:05:45;29.60;72.90
13405;DHT22;6773;51.192;7.024;2022-08-19T12:08:11;29.30;74.90
13405;DHT22;6773;51.192;7.024;2022-08-19T12:10:39;29.40;73.60
13405;DHT22;6773;51.192;7.024;2022-08-19T12:13:05;29.40;72.40
13405;DHT22;6773;51.192;7.024;2022-08-19T12:15:36;29.40;72.20
13405;DHT22;6773;51.192;7.024;2022-08-19T12:18:02;29.10;69.90
13405;DHT22;6773;51.192;7.024;2022-08-19T12:20:28;29.10;70.70
13405;DHT22;6773;51.192;7.024;2022-08-19T12:22:53;29.50;73.20
13405;DHT22;6773;51.192;7.024;2022-08-19T12:25:20;30.40;71.00
13405;DHT22;6773;51.192;7.024;2022-08-19T12:27:46;30.30;71.00
13405;DHT22;6773;51.192;7.024;2022-08-19T12:30:13;29.20;70.40
13405;DHT22;6773;51.192;7.024;2022-08-19T12:32:39;29.20;71.30
13405;DHT22;6773;51.192;7.024;2022-08-19T12:35:06;29.20;71.30
13405;DHT22;6773;51.192;7.024;2022-08-19T12:37:32;29.90;66.10
13405;DHT22;6773;51.192;7.024;2022-08-19T12:39:58;29.90;67.50
13405;DHT22;6773;51.192;7.024;2022-08-19T12:42:24;29.60;68.20
13405;DHT22;6773;51.192;7.024;2022-08-19T12:44:49;29.30;70.30
13405;DHT22;6773;51.192;7.024;2022-08-19T12:47:17;29.30;72.60
13405;DHT22;6773;51.192;7.024;2022-08-19T12:49:43;29.30;72.80
13405;DHT22;6773;51.192;7.024;2022-08-19T12:52:09;29.40;69.20
13405;DHT22;6773;51.192;7.024;2022-08-19T12:54:37;29.60;71.40
13405;DHT22;6773;51.192;7.024;2022-08-19T12:57:07;29.00;68.00
13405;DHT22;6773;51.192;7.024;2022-08-19T12:59:34;29.00;68.70
13405;DHT22;6773;51.192;7.024;2022-08-19T13:02:00;29.10;69.10
13405;DHT22;6773;51.192;7.024;2022-08-19T13:06:51;29.20;72.40
13405;DHT22;6773;51.192;7.024;2022-08-19T13:09:17;29.20;68.90
13405;DHT22;6773;51.192;7.024;2022-08-19T13:11:42;29.40;70.00
13405;DHT22;6773;51.192;7.024;2022-08-19T13:14:08;29.60;68.50
13405;DHT22;6773;51.192;7.024;2022-08-19T13:16:35;29.20;68.30
13405;DHT22;6773;51.192;7.024;2022-08-19T13:19:01;29.20;68.70
13405;DHT22;6773;51.192;7.024;2022-08-19T13:21:29;29.60;69.80
13405;DHT22;6773;51.192;7.024;2022-08-19T13:23:56;29.60;68.40
13405;DHT22;6773;51.192;7.024;2022-08-19T13:26:22;29.50;68.80
13405;DHT22;6773;51.192;7.024;2022-08-19T13:28:48;29.90;71.50
13405;DHT22;6773;51.192;7.024;2022-08-19T13:31:35;30.50;68.10
13405;DHT22;6773;51.192;7.024;2022-08-19T13:34:33;31.20;66.90
13405;DHT22;6773;51.192;7.024;2022-08-19T13:36:59;31.30;65.50
13405;DHT22;6773;51.192;7.024;2022-08-19T13:39:29;31.00;64.50
13405;DHT22;6773;51.192;7.024;2022-08-19T13:41:54;30.70;63.70
13405;DHT22;6773;51.192;7.024;2022-08-19T13:44:20;30.10;64.60
13405;DHT22;6773;51.192;7.024;2022-08-19T13:46:47;29.30;64.80
13405;DHT22;6773;51.192;7.024;2022-08-19T13:49:14;29.30;66.20
13405;DHT22;6773;51.192;7.024;2022-08-19T13:51:42;29.40;66.20
13405;DHT22;6773;51.192;7.024;2022-08-19T13:54:09;29.30;65.50
13405;DHT22;6773;51.192;7.024;2022-08-19T13:56:39;29.70;64.90
13405;DHT22;6773;51.192;7.024;2022-08-19T13:59:05;29.70;65.50
13405;DHT22;6773;51.192;7.024;2022-08-19T14:01:30;29.60;67.10
13405;DHT22;6773;51.192;7.024;2022-08-19T14:03:56;29.70;66.80
13405;DHT22;6773;51.192;7.024;2022-08-19T14:06:22;30.20;65.70
13405;DHT22;6773;51.192;7.024;2022-08-19T14:08:48;30.70;63.00
13405;DHT22;6773;51.192;7.024;2022-08-19T14:11:14;30.70;64.00
13405;DHT22;6773;51.192;7.024;2022-08-19T14:13:40;30.70;62.50
13405;DHT22;6773;51.192;7.024;2022-08-19T14:16:10;30.80;63.30
13405;DHT22;6773;51.192;7.024;2022-08-19T14:18:36;31.00;62.70
13405;DHT22;6773;51.192;7.024;2022-08-19T14:21:04;31.50;62.30
13405;DHT22;6773;51.192;7.024;2022-08-19T14:23:30;31.30;61.20
13405;DHT22;6773;51.192;7.024;2022-08-19T14:26:04;31.10;60.80
13405;DHT22;6773;51.192;7.024;2022-08-19T14:28:30;31.10;61.70
13405;DHT22;6773;51.192;7.024;2022-08-19T14:30:56;31.10;61.20
13405;DHT22;6773;51.192;7.024;2022-08-19T14:33:21;31.00;62.70
13405;DHT22;6773;51.192;7.024;2022-08-19T14:35:47;31.50;59.50
13405;DHT22;6773;51.192;7.024;2022-08-19T14:38:17;30.70;59.50
13405;DHT22;6773;51.192;7.024;2022-08-19T14:40:44;30.40;61.00
13405;DHT22;6773;51.192;7.024;2022-08-19T14:43:10;30.30;62.00
13405;DHT22;6773;51.192;7.024;2022-08-19T14:45:37;30.30;62.90
13405;DHT22;6773;51.192;7.024;2022-08-19T14:48:05;30.20;62.90
13405;DHT22;6773;51.192;7.024;2022-08-19T14:50:31;30.60;65.40
13405;DHT22;6773;51.192;7.024;2022-08-19T14:53:00;30.70;62.00
13405;DHT22;6773;51.192;7.024;2022-08-19T14:55:26;30.80;64.10
13405;DHT22;6773;51.192;7.024;2022-08-19T14:57:51;30.80;64.10
13405;DHT22;6773;51.192;7.024;2022-08-19T15:00:17;30.80;62.50
13405;DHT22;6773;51.192;7.024;2022-08-19T15:02:43;30.80;63.60
13405;DHT22;6773;51.192;7.024;2022-08-19T15:05:12;31.10;64.00
13405;DHT22;6773;51.192;7.024;2022-08-19T15:07:38;30.50;62.10
13405;DHT22;6773;51.192;7.024;2022-08-19T15:10:07;30.50;62.50
13405;DHT22;6773;51.192;7.024;2022-08-19T15:12:38;30.60;62.90
13405;DHT22;6773;51.192;7.024;2022-08-19T15:15:13;30.70;62.00
13405;DHT22;6773;51.192;7.024;2022-08-19T15:17:40;30.60;62.50
13405;DHT22;6773;51.192;7.024;2022-08-19T15:20:07;30.10;63.00
13405;DHT22;6773;51.192;7.024;2022-08-19T15:22:34;29.90;62.60
13405;DHT22;6773;51.192;7.024;2022-08-19T15:25:01;30.20;63.00
13405;DHT22;6773;51.192;7.024;2022-08-19T15:27:27;30.10;61.00
13405;DHT22;6773;51.192;7.024;2022-08-19T15:29:52;29.90;61.90
13405;DHT22;6773;51.192;7.024;2022-08-19T15:32:18;29.90;62.80
13405;DHT22;6773;51.192;7.024;2022-08-19T15:34:44;30.00;62.00
13405;DHT22;6773;51.192;7.024;2022-08-19T15:37:10;29.20;61.90
13405;DHT22;6773;51.192;7.024;2022-08-19T15:39:36;29.20;62.80
13405;DHT22;6773;51.192;7.024;2022-08-19T15:42:02;29.00;63.80
13405;DHT22;6773;51.192;7.024;2022-08-19T15:44:28;29.00;64.40
13405;DHT22;6773;51.192;7.024;2022-08-19T15:46:54;29.90;63.80
13405;DHT22;6773;51.192;7.024;2022-08-19T15:49:20;29.90;64.10
13405;DHT22;6773;51.192;7.024;2022-08-19T15:51:48;30.30;61.70
13405;DHT22;6773;51.192;7.024;2022-08-19T15:54:17;30.50;62.40
13405;DHT22;6773;51.192;7.024;2022-08-19T15:56:46;30.20;61.40
13405;DHT22;6773;51.192;7.024;2022-08-19T15:59:30;30.20;61.80
13405;DHT22;6773;51.192;7.024;2022-08-19T16:02:16;29.30;63.80
13405;DHT22;6773;51.192;7.024;2022-08-19T16:05:01;28.70;64.60
13405;DHT22;6773;51.192;7.024;2022-08-19T16:10:12;28.00;67.50
13405;DHT22;6773;51.192;7.024;2022-08-19T16:12:39;27.90;68.10
13405;DHT22;6773;51.192;7.024;2022-08-19T16:15:07;27.80;67.60
13405;DHT22;6773;51.192;7.024;2022-08-19T16:17:33;27.80;68.10
13405;DHT22;6773;51.192;7.024;2022-08-19T16:20:00;27.80;68.80
13405;DHT22;6773;51.192;7.024;2022-08-19T16:22:31;28.10;66.40
13405;DHT22;6773;51.192;7.024;2022-08-19T16:24:57;28.10;67.40
13405;DHT22;6773;51.192;7.024;2022-08-19T16:27:23;28.90;65.30